Time;durP1;ratioP1;P1;durP2;ratioP2;P2;SDS_P1;SDS_P2;PMS_P1;PMS_P2;Temp;Humidity;BMP_temperature;BMP_pressure;BME280_temperature;BME280_humidity;BME280_pressure;Samples;Min_cycle;Max_cycle;Signal;HPM_P1;HPM_P2
2022/07/13 03:35:33;;;;;;;;;;;;;;;9.85;90.37;100205.16;6218508;22;19974;-90
2022/07/13 03:38:01;;;;;;;;;;;;;;;10.12;92.92;100202.50;6276477;22;19915;-88
2022/07/13 03:40:26;;;;;;;;;;;;;;;9.96;90.46;100205.66;6276391;22;19915;-93
2022/07/13 03:42:54;;;;;;;;;;;;;;;10.24;93.14;100206.50;6280896;22;19900;-89
2022/07/13 03:45:28;;;;;;;;;;;;;;;10.05;91.40;100199.22;6258327;23;19942;-94
2022/07/13 03:47:54;;;;;;;;;;;;;;;10.23;93.55;100202.13;6227686;23;19942;-89
2022/07/13 03:50:19;;;;;;;;;;;;;;;10.21;92.55;100202.22;6253761;23;20355;-95
2022/07/13 03:52:44;;;;;;;;;;;;;;;10.21;92.99;100207.50;6244970;23;20256;-95
2022/07/13 03:55:10;;;;;;;;;;;;;;;10.13;92.80;100207.75;6220290;23;19915;-92
2022/07/13 03:57:35;;;;;;;;;;;;;;;10.10;92.80;100212.28;6242695;23;19918;-90
2022/07/13 04:00:00;;;;;;;;;;;;;;;10.20;93.23;100205.75;6243261;23;19916;-87
2022/07/13 04:02:26;;;;;;;;;;;;;;;10.13;92.73;100206.88;6242282;23;19916;-89
2022/07/13 04:04:51;;;;;;;;;;;;;;;10.21;93.84;100203.97;6241116;23;19942;-89
2022/07/13 04:07:17;;;;;;;;;;;;;;;10.13;92.86;100202.47;6242257;23;20267;-89
2022/07/13 04:09:42;;;;;;;;;;;;;;;10.21;94.15;100207.50;6217691;23;19916;-92
2022/07/13 04:12:07;;;;;;;;;;;;;;;10.04;92.73;100204.56;6216941;23;19912;-89
2022/07/13 04:14:32;;;;;;;;;;;;;;;10.16;94.34;100209.41;6217106;23;19915;-90
2022/07/13 04:16:58;;;;;;;;;;;;;;;10.13;93.42;100218.34;6248171;22;19911;-89
2022/07/13 04:19:23;;;;;;;;;;;;;;;10.31;94.92;100221.28;6247139;22;20394;-90
2022/07/13 04:21:48;;;;;;;;;;;;;;;10.11;93.11;100219.31;6275957;22;19918;-91
2022/07/13 04:24:13;;;;;;;;;;;;;;;10.40;95.25;100209.53;6275785;22;20398;-87
2022/07/13 04:26:39;;;;;;;;;;;;;;;10.05;93.76;100206.28;6275740;22;19911;-87
2022/07/13 04:29:04;;;;;;;;;;;;;;;10.29;95.68;100208.09;6275896;22;19915;-88
2022/07/13 04:31:29;;;;;;;;;;;;;;;10.14;94.19;100211.25;6248682;22;19911;-89
2022/07/13 04:33:54;;;;;;;;;;;;;;;10.29;95.42;100205.44;6248007;22;19969;-88
2022/07/13 04:36:20;;;;;;;;;;;;;;;10.16;94.25;100206.78;6246769;22;19990;-88
2022/07/13 07:51:45;;;;;;;;;;;;;;;10.53;93.80;100205.53;6241733;22;20300;-80
2022/07/13 07:54:10;;;;;;;;;;;;;;;13.12;98.10;100194.88;6246374;22;19954;-83
2022/07/13 07:56:38;;;;;;;;;;;;;;;16.23;91.73;100188.22;6273540;22;20322;-82
2022/07/13 07:59:14;;;;;;;;;;;;;;;16.06;91.08;100189.22;6246917;22;19911;-84
2022/07/13 08:01:40;;;;;;;;;;;;;;;16.16;93.05;100192.19;6275366;22;20423;-79
2022/07/13 08:04:05;;;;;;;;;;;;;;;14.28;98.52;100186.53;6275559;22;19946;-79
2022/07/13 08:06:30;;;;;;;;;;;;;;;13.45;100.00;100186.25;6274105;22;19950;-79
2022/07/13 08:08:55;;;;;;;;;;;;;;;12.97;100.00;100182.28;6275660;22;19911;-79
2022/07/13 08:11:21;;;;;;;;;;;;;;;12.83;100.00;100185.59;6273760;22;19907;-79
2022/07/13 08:13:47;;;;;;;;;;;;;;;12.75;99.14;100177.97;6273385;22;20295;-78
2022/07/13 08:16:12;;;;;;;;;;;;;;;12.76;98.79;100179.66;6273519;22;19919;-79
2022/07/13 08:18:38;;;;;;;;;;;;;;;12.64;97.36;100182.91;6273582;22;19911;-79
2022/07/13 08:21:03;;;;;;;;;;;;;;;12.78;96.18;100175.16;6272205;22;20345;-79
2022/07/13 08:26:13;;;;;;;;;;;;;;;12.40;94.56;100179.53;6272905;22;20366;-80
2022/07/13 08:28:38;;;;;;;;;;;;;;;12.51;96.17;100180.78;6273345;22;20277;-80
2022/07/13 08:31:05;;;;;;;;;;;;;;;12.66;94.01;100175.72;6273951;22;19911;-79
2022/07/13 08:38:58;;;;;;;;;;;;;;;12.26;93.58;100173.03;6275153;22;19922;-79
2022/07/13 08:41:23;;;;;;;;;;;;;;;12.28;95.49;100172.97;6249154;22;19912;-79
2022/07/13 08:43:49;;;;;;;;;;;;;;;12.75;93.72;100167.31;6250136;22;19986;-79
2022/07/13 08:46:14;;;;;;;;;;;;;;;12.59;93.72;100174.25;6250259;22;20316;-79
2022/07/13 08:48:41;;;;;;;;;;;;;;;12.22;94.10;100173.22;6277549;22;20341;-79
2022/07/13 08:51:06;;;;;;;;;;;;;;;12.46;93.81;100169.50;6275673;22;19997;-79
2022/07/13 08:53:32;;;;;;;;;;;;;;;12.46;94.83;100168.63;6277231;22;19959;-80
2022/07/13 08:55:57;;;;;;;;;;;;;;;12.40;92.94;100175.09;6250396;22;19931;-79
2022/07/13 08:58:22;;;;;;;;;;;;;;;12.48;94.85;100167.63;6250660;22;19919;-80
2022/07/13 09:00:48;;;;;;;;;;;;;;;12.49;93.62;100164.06;6277763;22;19911;-79
2022/07/13 09:03:13;;;;;;;;;;;;;;;12.58;94.57;100153.94;6277560;22;19916;-79
2022/07/13 09:05:39;;;;;;;;;;;;;;;12.39;93.27;100157.41;6275980;22;19935;-79
2022/07/13 09:08:08;;;;;;;;;;;;;;;12.29;93.56;100156.09;6277226;22;20271;-80
2022/07/13 09:10:53;;;;;;;;;;;;;;;12.60;95.53;100162.69;6277612;22;19918;-79
2022/07/13 09:13:41;;;;;;;;;;;;;;;12.54;93.26;100150.56;6277211;22;19915;-79
2022/07/13 09:16:12;;;;;;;;;;;;;;;12.53;95.56;100155.00;6277392;22;19915;-79
2022/07/13 09:18:38;;;;;;;;;;;;;;;12.58;93.72;100151.28;6276993;22;19943;-79
2022/07/13 09:21:03;;;;;;;;;;;;;;;12.43;92.93;100145.72;6248452;22;19919;-79
2022/07/13 09:23:29;;;;;;;;;;;;;;;12.50;93.64;100146.31;6249902;22;20323;-79
2022/07/13 09:25:54;;;;;;;;;;;;;;;12.50;92.40;100141.00;6250003;22;19934;-79
2022/07/13 09:28:19;;;;;;;;;;;;;;;12.48;94.70;100138.41;6249918;22;19923;-79
2022/07/13 09:30:45;;;;;;;;;;;;;;;12.55;93.11;100146.97;6249912;22;19969;-79
2022/07/13 09:33:10;;;;;;;;;;;;;;;12.54;93.86;100154.06;6276707;22;19912;-78
2022/07/13 09:35:42;;;;;;;;;;;;;;;12.56;92.17;100140.72;6275694;22;19922;-79
2022/07/13 09:38:08;;;;;;;;;;;;;;;12.69;92.71;100144.53;6249898;22;19968;-79
2022/07/13 09:40:33;;;;;;;;;;;;;;;12.59;93.38;100143.25;6276875;22;19982;-79
2022/07/13 09:48:26;;;;;;;;;;;;;;;12.75;91.33;100137.19;6276871;22;19918;-79
2022/07/13 09:50:53;;;;;;;;;;;;;;;12.65;93.00;100136.75;6276025;22;20245;-79
2022/07/13 09:53:37;;;;;;;;;;;;;;;12.62;93.63;100135.13;6276763;22;19919;-82
2022/07/13 09:56:04;;;;;;;;;;;;;;;12.45;92.90;100135.88;6277094;22;19946;-79
2022/07/13 09:58:33;;;;;;;;;;;;;;;12.81;94.33;100142.25;6276649;22;19919;-78
2022/07/13 10:00:59;;;;;;;;;;;;;;;12.81;92.07;100134.25;6276789;22;20335;-79
2022/07/13 10:03:24;;;;;;;;;;;;;;;12.85;94.27;100134.03;6276987;22;19914;-79
2022/07/13 10:05:51;;;;;;;;;;;;;;;12.93;92.24;100133.69;6275268;22;19922;-79
2022/07/13 10:08:17;;;;;;;;;;;;;;;12.59;94.52;100137.03;6276691;22;19908;-79
2022/07/13 10:10:44;;;;;;;;;;;;;;;12.65;93.07;100135.00;6276829;22;19968;-79
2022/07/13 10:13:10;;;;;;;;;;;;;;;12.51;94.83;100132.94;6249969;22;20327;-79
2022/07/13 10:15:36;;;;;;;;;;;;;;;12.53;94.45;100133.72;6276579;22;19918;-78
2022/07/13 10:18:02;;;;;;;;;;;;;;;12.61;94.01;100132.53;6276759;22;20390;-79
2022/07/13 10:20:28;;;;;;;;;;;;;;;12.72;93.96;100125.78;6275034;22;19918;-79
2022/07/13 10:22:53;;;;;;;;;;;;;;;12.60;93.35;100117.50;6249564;22;19960;-78
2022/07/13 10:25:23;;;;;;;;;;;;;;;12.47;95.00;100111.91;6276658;22;20234;-78
2022/07/13 10:28:02;;;;;;;;;;;;;;;12.59;93.59;100114.00;6276525;22;19915;-79
2022/07/13 10:30:28;;;;;;;;;;;;;;;12.71;94.45;100117.88;6276451;22;20335;-78
2022/07/13 10:32:53;;;;;;;;;;;;;;;12.67;92.64;100117.16;6276709;22;19922;-78
2022/07/13 10:35:20;;;;;;;;;;;;;;;12.68;94.23;100110.03;6248116;22;19915;-78
2022/07/13 10:38:00;;;;;;;;;;;;;;;12.66;93.38;100122.56;6249028;22;19915;-79
2022/07/13 10:40:27;;;;;;;;;;;;;;;12.54;93.60;100114.22;6276383;22;20216;-79
2022/07/13 10:43:03;;;;;;;;;;;;;;;12.51;95.02;100114.34;6249599;22;19919;-79
2022/07/13 10:45:41;;;;;;;;;;;;;;;12.78;92.78;100115.78;6276315;22;19915;-79
2022/07/13 10:48:26;;;;;;;;;;;;;;;12.53;94.66;100108.97;6276262;22;19919;-79
2022/07/13 10:50:52;;;;;;;;;;;;;;;12.51;93.51;100109.03;6246620;22;19950;-78
2022/07/13 10:53:21;;;;;;;;;;;;;;;12.84;95.66;100112.84;6239757;22;19915;-79
2022/07/13 10:55:50;;;;;;;;;;;;;;;12.53;94.21;100111.63;6248591;22;19915;-78
2022/07/13 10:58:30;;;;;;;;;;;;;;;12.65;95.31;100097.78;6276303;22;19915;-78
2022/07/13 11:00:56;;;;;;;;;;;;;;;12.63;94.20;100101.41;6248904;22;19916;-79
2022/07/13 11:03:26;;;;;;;;;;;;;;;12.59;94.10;100100.72;6276200;22;19950;-78
2022/07/13 11:06:20;;;;;;;;;;;;;;;12.75;94.91;100099.97;6274894;22;19934;-79
2022/07/13 11:08:46;;;;;;;;;;;;;;;12.55;93.42;100099.13;6223146;22;19911;-79
2022/07/13 11:11:15;;;;;;;;;;;;;;;12.54;96.15;100095.59;6248849;22;19918;-79
2022/07/13 11:13:44;;;;;;;;;;;;;;;12.83;93.19;100082.75;6276241;22;19918;-80
2022/07/13 11:16:09;;;;;;;;;;;;;;;12.74;94.23;100084.97;6249485;22;20323;-80
2022/07/13 11:18:36;;;;;;;;;;;;;;;12.60;93.49;100082.97;6248862;22;19996;-80
2022/07/13 11:21:10;;;;;;;;;;;;;;;12.62;94.55;100081.06;6247307;22;19938;-80
2022/07/13 11:26:28;;;;;;;;;;;;;;;12.95;92.31;100075.97;6275999;22;20354;-79
2022/07/13 11:29:09;;;;;;;;;;;;;;;12.92;93.41;100064.63;6248786;22;19915;-79
2022/07/13 11:31:35;;;;;;;;;;;;;;;12.75;92.51;100073.38;6249205;22;19994;-80
2022/07/13 11:34:01;;;;;;;;;;;;;;;12.67;94.97;100071.13;6249110;22;19962;-79
2022/07/13 11:36:26;;;;;;;;;;;;;;;12.74;94.96;100069.03;6274522;22;19911;-80
2022/07/13 11:38:52;;;;;;;;;;;;;;;12.75;95.72;100058.31;6276206;22;19956;-80
2022/07/13 11:41:19;;;;;;;;;;;;;;;12.84;93.80;100052.56;6275838;22;19933;-79
2022/07/13 11:43:45;;;;;;;;;;;;;;;12.90;93.13;100049.59;6275865;22;19911;-80
2022/07/13 11:46:11;;;;;;;;;;;;;;;12.67;92.95;100049.84;6276096;22;20230;-81
2022/07/13 11:48:36;;;;;;;;;;;;;;;12.71;92.91;100052.25;6276030;22;19915;-79
2022/07/13 11:51:08;;;;;;;;;;;;;;;12.76;92.96;100052.03;6273958;22;20357;-80
2022/07/13 11:53:33;;;;;;;;;;;;;;;12.81;90.98;100049.16;6275637;22;19912;-80
2022/07/13 11:56:03;;;;;;;;;;;;;;;12.47;94.03;100048.97;6275726;22;19918;-80
2022/07/13 11:58:31;;;;;;;;;;;;;;;12.45;92.75;100045.53;6275709;22;19967;-80
2022/07/13 12:00:57;;;;;;;;;;;;;;;12.70;93.57;100044.34;6248892;22;19922;-80
2022/07/13 12:03:26;;;;;;;;;;;;;;;12.92;91.35;100043.34;6275704;22;20274;-80
2022/07/13 12:05:51;;;;;;;;;;;;;;;12.93;90.43;100045.06;6246773;22;19919;-80
2022/07/13 12:08:17;;;;;;;;;;;;;;;12.79;91.13;100046.59;6275794;22;19915;-80
2022/07/13 12:10:42;;;;;;;;;;;;;;;12.88;89.35;100048.81;6275844;22;19911;-80
2022/07/13 12:13:07;;;;;;;;;;;;;;;12.66;91.76;100058.75;6275662;22;19915;-80
2022/07/13 12:15:33;;;;;;;;;;;;;;;12.59;90.01;100051.97;6275817;22;19911;-80
2022/07/13 12:18:02;;;;;;;;;;;;;;;12.65;92.94;100052.56;6248547;22;20022;-81
2022/07/13 12:20:31;;;;;;;;;;;;;;;12.51;91.93;100049.72;6246828;22;19911;-83
2022/07/13 12:22:57;;;;;;;;;;;;;;;12.82;90.89;100057.06;6275830;22;19990;-79
2022/07/13 12:25:23;;;;;;;;;;;;;;;12.64;91.68;100050.00;6275796;22;20301;-79
2022/07/13 12:27:52;;;;;;;;;;;;;;;12.84;89.20;100041.94;6275594;22;19998;-80
2022/07/13 12:30:18;;;;;;;;;;;;;;;12.62;91.94;100044.75;6275585;22;19956;-80
2022/07/13 12:32:59;;;;;;;;;;;;;;;12.86;89.97;100039.16;6275540;22;20324;-79
2022/07/13 12:35:29;;;;;;;;;;;;;;;12.77;90.53;100043.16;6274216;22;19998;-79
2022/07/13 12:37:55;;;;;;;;;;;;;;;12.59;91.26;100041.34;6248382;22;19911;-80
2022/07/13 12:40:39;;;;;;;;;;;;;;;12.72;89.63;100039.84;6248434;22;19915;-79
2022/07/13 12:43:04;;;;;;;;;;;;;;;12.59;91.97;100034.25;6275383;22;20243;-79
2022/07/13 12:45:32;;;;;;;;;;;;;;;12.80;89.56;100034.16;6275555;22;19998;-80
2022/07/13 12:47:58;;;;;;;;;;;;;;;12.75;91.01;100037.06;6248293;22;20320;-80
2022/07/13 12:50:26;;;;;;;;;;;;;;;12.78;89.77;100031.59;6273814;22;19945;-80
2022/07/13 12:53:01;;;;;;;;;;;;;;;12.84;89.24;100030.41;6247961;22;20303;-81
2022/07/13 12:55:26;;;;;;;;;;;;;;;12.66;91.46;100026.84;6248214;22;20346;-79
2022/07/13 12:57:52;;;;;;;;;;;;;;;12.68;89.11;100028.50;6275371;22;19920;-78
2022/07/13 13:00:22;;;;;;;;;;;;;;;12.64;91.42;100028.72;6275513;22;20216;-79
2022/07/13 13:02:47;;;;;;;;;;;;;;;12.59;90.41;100026.28;6248158;22;19911;-79
2022/07/13 13:05:12;;;;;;;;;;;;;;;12.65;90.90;100017.13;6273718;22;19916;-78
2022/07/13 13:07:39;;;;;;;;;;;;;;;12.75;90.41;100022.88;6248154;22;19990;-79
2022/07/13 13:10:05;;;;;;;;;;;;;;;12.69;88.46;100018.72;6275197;22;19911;-79
2022/07/13 13:12:30;;;;;;;;;;;;;;;12.67;91.33;100017.94;6275351;22;19915;-79
2022/07/13 13:15:03;;;;;;;;;;;;;;;12.65;89.69;100017.13;6275516;22;19990;-79
2022/07/13 13:17:29;;;;;;;;;;;;;;;12.60;91.62;100016.50;6275711;22;19911;-79
2022/07/13 13:19:54;;;;;;;;;;;;;;;12.68;90.16;100007.25;6276632;22;19911;-79
2022/07/13 13:22:20;;;;;;;;;;;;;;;12.49;90.21;100009.91;6276280;22;20321;-79
2022/07/13 13:24:47;;;;;;;;;;;;;;;12.35;91.66;100012.34;6275892;22;20383;-79
2022/07/13 13:27:13;;;;;;;;;;;;;;;12.55;89.71;100008.75;6276687;22;19923;-79
2022/07/13 13:32:23;;;;;;;;;;;;;;;12.77;88.95;100013.03;6277144;22;20373;-79
2022/07/13 13:34:48;;;;;;;;;;;;;;;12.82;88.22;100003.91;6249773;22;19911;-79
2022/07/13 13:37:14;;;;;;;;;;;;;;;12.53;89.71;99997.34;6275315;22;19915;-79
2022/07/13 13:39:39;;;;;;;;;;;;;;;12.58;88.30;100005.09;6249752;22;19934;-79
2022/07/13 13:42:04;;;;;;;;;;;;;;;12.41;90.90;99996.09;6276870;22;19915;-79
2022/07/13 13:44:30;;;;;;;;;;;;;;;12.41;90.07;99990.78;6276933;22;19911;-80
2022/07/13 13:46:55;;;;;;;;;;;;;;;12.43;92.90;99986.28;6276901;22;20246;-78
2022/07/13 13:49:20;;;;;;;;;;;;;;;12.32;91.12;99992.09;6277235;22;19911;-79
2022/07/13 13:51:46;;;;;;;;;;;;;;;12.38;91.50;99985.66;6274923;22;19926;-79
2022/07/13 13:54:11;;;;;;;;;;;;;;;12.50;91.29;99978.88;6250128;22;20344;-79
2022/07/13 13:56:36;;;;;;;;;;;;;;;12.77;89.25;99975.81;6276647;22;19925;-79
2022/07/13 13:59:02;;;;;;;;;;;;;;;12.58;91.23;99981.16;6276793;22;20025;-79
2022/07/13 14:01:28;;;;;;;;;;;;;;;12.54;89.13;99969.84;6249563;22;19942;-79
2022/07/13 14:03:53;;;;;;;;;;;;;;;12.87;90.96;99969.09;6276722;22;19918;-79
2022/07/13 14:06:18;;;;;;;;;;;;;;;12.49;89.75;99970.06;6275128;22;20729;-79
2022/07/13 14:08:43;;;;;;;;;;;;;;;12.60;90.89;99973.97;6276701;22;20228;-79
2022/07/13 14:11:12;;;;;;;;;;;;;;;12.39;91.33;99971.41;6249610;22;19915;-80
2022/07/13 14:13:38;;;;;;;;;;;;;;;12.65;90.12;99961.31;6249436;22;19994;-80
2022/07/13 14:16:04;;;;;;;;;;;;;;;12.62;91.33;99967.66;6249496;22;19997;-79
2022/07/13 14:18:31;;;;;;;;;;;;;;;12.57;90.01;99963.47;6276614;22;19926;-80
2022/07/13 14:20:56;;;;;;;;;;;;;;;12.47;92.48;99955.94;6247727;22;19995;-79
2022/07/13 14:23:21;;;;;;;;;;;;;;;12.42;91.83;99952.66;6276615;22;19939;-79
2022/07/13 14:25:47;;;;;;;;;;;;;;;12.48;93.08;99955.03;6276463;22;19915;-79
2022/07/13 14:28:12;;;;;;;;;;;;;;;12.30;92.51;99958.53;6249588;22;19916;-80
2022/07/13 14:30:37;;;;;;;;;;;;;;;12.49;92.45;99950.56;6276390;22;19915;-80
2022/07/13 14:33:03;;;;;;;;;;;;;;;12.31;92.79;99952.31;6276345;22;19950;-80
2022/07/13 14:35:28;;;;;;;;;;;;;;;12.38;91.12;99948.44;6274685;22;20342;-78
2022/07/13 14:37:53;;;;;;;;;;;;;;;12.56;92.67;99937.84;6276143;22;19911;-79
2022/07/13 14:40:19;;;;;;;;;;;;;;;12.50;89.67;99926.56;6249367;22;20259;-79
2022/07/13 14:42:44;;;;;;;;;;;;;;;12.30;93.84;99935.53;6276390;22;19918;-79
2022/07/13 14:45:09;;;;;;;;;;;;;;;12.43;93.13;99940.22;6276331;22;20363;-79
2022/07/13 14:47:34;;;;;;;;;;;;;;;12.38;94.55;99937.81;6276395;22;20216;-79
2022/07/13 14:50:00;;;;;;;;;;;;;;;12.52;92.43;99934.47;6247527;22;19922;-79
2022/07/13 14:52:25;;;;;;;;;;;;;;;12.61;92.54;99933.19;6243798;23;19916;-79
2022/07/13 14:54:50;;;;;;;;;;;;;;;12.39;93.00;99936.84;6245522;22;20346;-80
2022/07/13 14:57:16;;;;;;;;;;;;;;;12.39;93.68;99928.03;6244034;23;20239;-79
2022/07/13 14:59:41;;;;;;;;;;;;;;;12.37;95.60;99924.59;6245589;22;20263;-79
2022/07/13 15:02:06;;;;;;;;;;;;;;;12.40;94.68;99925.31;6244191;23;19912;-79
2022/07/13 15:04:34;;;;;;;;;;;;;;;12.50;95.12;99923.91;6244266;23;19924;-79
2022/07/13 15:07:00;;;;;;;;;;;;;;;12.44;94.02;99926.88;6242379;23;19912;-79
2022/07/13 15:09:25;;;;;;;;;;;;;;;12.30;95.76;99924.00;6244223;23;20382;-79
2022/07/13 15:11:50;;;;;;;;;;;;;;;12.61;93.86;99911.91;6243990;23;19915;-78
2022/07/13 15:14:16;;;;;;;;;;;;;;;12.67;94.76;99911.63;6244006;23;20240;-79
2022/07/13 15:16:41;;;;;;;;;;;;;;;12.38;93.18;99921.88;6242500;23;20221;-79
2022/07/13 15:19:10;;;;;;;;;;;;;;;12.46;93.47;99914.38;6244218;22;19911;-79
2022/07/13 15:21:36;;;;;;;;;;;;;;;12.69;91.71;99907.91;6240233;23;19916;-79
2022/07/13 15:24:02;;;;;;;;;;;;;;;15.62;85.99;99894.38;6243672;23;19922;-82
2022/07/13 15:26:27;;;;;;;;;;;;;;;14.97;79.47;99909.91;6245110;22;19911;-82
2022/07/13 15:28:53;;;;;;;;;;;;;;;12.77;91.58;99910.19;6243221;23;19922;-82
2022/07/13 15:31:19;;;;;;;;;;;;;;;12.49;96.74;99908.03;6243583;23;19911;-89
2022/07/13 15:33:44;;;;;;;;;;;;;;;12.31;96.81;99910.66;6244122;23;19915;-83
2022/07/13 15:36:09;;;;;;;;;;;;;;;12.22;98.83;99908.47;6243145;22;19915;-82
2022/07/13 15:38:34;;;;;;;;;;;;;;;12.04;98.29;99912.81;6244910;22;20262;-83
2022/07/13 15:43:48;;;;;;;;;;;;;;;12.13;98.73;99912.41;6243372;23;19961;-82
2022/07/13 15:46:13;;;;;;;;;;;;;;;11.88;98.27;99902.03;6244359;22;19997;-83
2022/07/13 15:48:39;;;;;;;;;;;;;;;12.00;99.22;99895.34;6244981;23;20263;-83
2022/07/13 15:51:04;;;;;;;;;;;;;;;11.70;98.54;99898.44;6245934;22;20303;-83
2022/07/13 15:53:29;;;;;;;;;;;;;;;11.93;100.00;99893.88;6247612;22;19947;-82
2022/07/13 15:55:57;;;;;;;;;;;;;;;11.79;99.13;99891.81;6248414;22;20335;-82
2022/07/13 15:58:23;;;;;;;;;;;;;;;12.04;100.00;99886.28;6275686;22;20357;-83
2022/07/13 16:00:48;;;;;;;;;;;;;;;11.96;98.85;99880.47;6247575;22;19911;-82
2022/07/13 16:03:14;;;;;;;;;;;;;;;11.81;100.00;99890.84;6275389;22;19946;-83
2022/07/13 16:05:39;;;;;;;;;;;;;;;11.80;99.48;99883.78;6274480;22;19962;-82
2022/07/13 16:08:05;;;;;;;;;;;;;;;11.90;100.00;99876.28;6248793;22;20320;-82
2022/07/13 16:10:30;;;;;;;;;;;;;;;11.89;99.22;99877.22;6248910;22;19922;-83
2022/07/13 16:12:55;;;;;;;;;;;;;;;11.94;99.87;99879.69;6275553;22;19911;-82
2022/07/13 16:15:20;;;;;;;;;;;;;;;11.74;99.63;99876.13;6275536;22;20323;-83
2022/07/13 16:17:46;;;;;;;;;;;;;;;11.84;100.00;99867.72;6275586;22;20292;-82
2022/07/13 16:20:11;;;;;;;;;;;;;;;11.82;99.90;99870.44;6246763;22;19918;-82
2022/07/13 16:22:36;;;;;;;;;;;;;;;11.90;99.63;99867.44;6275598;22;19915;-81
2022/07/13 16:25:02;;;;;;;;;;;;;;;11.80;99.72;99862.56;6275502;22;19962;-82
2022/07/13 16:27:28;;;;;;;;;;;;;;;11.72;99.03;99862.06;6275302;22;20362;-81
2022/07/13 16:29:53;;;;;;;;;;;;;;;11.90;99.84;99867.44;6275365;22;19911;-82
2022/07/13 16:32:18;;;;;;;;;;;;;;;11.68;98.31;99857.84;6248125;22;19912;-81
2022/07/13 16:34:43;;;;;;;;;;;;;;;11.77;99.67;99857.38;6246546;22;20238;-81
2022/07/13 16:37:09;;;;;;;;;;;;;;;11.62;99.10;99858.97;6245884;22;19918;-81
2022/07/13 16:39:35;;;;;;;;;;;;;;;11.81;100.00;99855.47;6274737;22;19918;-82
2022/07/13 16:42:00;;;;;;;;;;;;;;;11.72;99.52;99851.44;6273456;22;19950;-83
2022/07/13 16:44:25;;;;;;;;;;;;;;;11.81;100.00;99853.66;6247789;22;19915;-81
2022/07/13 16:46:51;;;;;;;;;;;;;;;11.61;100.00;99846.63;6275440;22;19915;-80
2022/07/13 16:49:16;;;;;;;;;;;;;;;11.89;100.00;99855.97;6274683;22;19942;-82
2022/07/13 16:51:41;;;;;;;;;;;;;;;11.66;100.00;99850.88;6272157;22;19919;-82
2022/07/13 16:54:06;;;;;;;;;;;;;;;11.67;100.00;99847.28;6276495;22;19911;-81
2022/07/13 16:56:32;;;;;;;;;;;;;;;11.67;100.00;99856.09;6291942;22;19946;-82
2022/07/13 16:58:57;;;;;;;;;;;;;;;11.59;100.00;99850.31;6308126;22;19911;-80
2022/07/13 17:01:22;;;;;;;;;;;;;;;11.75;100.00;99851.31;6308001;22;19922;-80
2022/07/13 17:03:47;;;;;;;;;;;;;;;11.76;100.00;99849.53;6307288;22;20522;-83
2022/07/13 17:06:13;;;;;;;;;;;;;;;11.73;100.00;99845.22;6306453;22;19911;-83
2022/07/13 17:08:38;;;;;;;;;;;;;;;11.70;100.00;99850.66;6308612;22;20357;-84
2022/07/13 17:11:05;;;;;;;;;;;;;;;11.87;100.00;99847.22;6307373;22;19911;-82
2022/07/13 17:13:33;;;;;;;;;;;;;;;11.71;100.00;99849.75;6307468;22;19957;-81
2022/07/13 17:16:00;;;;;;;;;;;;;;;11.74;100.00;99848.72;6306936;22;19914;-82
2022/07/13 17:18:57;;;;;;;;;;;;;;;11.80;100.00;99846.63;6303399;22;19934;-82
2022/07/13 17:21:11;;;;;;;;;;;;;;;11.84;100.00;99850.03;6302166;22;19918;-83
2022/07/13 17:23:36;;;;;;;;;;;;;;;11.78;100.00;99843.19;6307623;22;19938;-84
2022/07/13 17:26:01;;;;;;;;;;;;;;;11.85;100.00;99853.53;6279846;22;20508;-82
2022/07/13 17:28:26;;;;;;;;;;;;;;;11.68;99.77;99843.69;6306320;22;19939;-82
2022/07/13 17:30:52;;;;;;;;;;;;;;;11.61;100.00;99846.63;6306522;22;19925;-83
2022/07/13 17:33:19;;;;;;;;;;;;;;;11.67;100.00;99844.63;6307958;22;19997;-83
2022/07/13 17:35:44;;;;;;;;;;;;;;;11.58;100.00;99840.59;6279122;22;19915;-83
2022/07/13 17:38:10;;;;;;;;;;;;;;;11.71;100.00;99836.47;6307846;22;19934;-83
2022/07/13 17:40:36;;;;;;;;;;;;;;;11.48;100.00;99839.31;6308307;22;19934;-83
2022/07/13 17:43:01;;;;;;;;;;;;;;;11.57;100.00;99838.91;6308002;22;20315;-83
2022/07/13 17:45:26;;;;;;;;;;;;;;;11.58;100.00;99836.19;6307602;22;19917;-83
2022/07/13 17:47:51;;;;;;;;;;;;;;;11.72;100.00;99835.50;6307360;22;19919;-83
2022/07/13 17:50:17;;;;;;;;;;;;;;;11.64;100.00;99843.81;6305469;22;19984;-83
2022/07/13 17:52:42;;;;;;;;;;;;;;;11.71;100.00;99841.78;6306778;22;19923;-83
2022/07/13 17:55:08;;;;;;;;;;;;;;;11.52;100.00;99838.22;6307748;22;20373;-83
2022/07/13 17:57:33;;;;;;;;;;;;;;;11.69;100.00;99840.13;6307285;22;19922;-82
2022/07/13 17:59:58;;;;;;;;;;;;;;;11.58;100.00;99840.59;6307518;22;19918;-83
2022/07/13 18:02:24;;;;;;;;;;;;;;;11.66;100.00;99832.28;6307590;22;20474;-82
2022/07/13 18:04:49;;;;;;;;;;;;;;;11.76;99.66;99838.91;6307520;22;20315;-83
2022/07/13 18:07:14;;;;;;;;;;;;;;;11.50;98.53;99832.13;6306183;22;19915;-82
2022/07/13 18:09:39;;;;;;;;;;;;;;;11.67;99.83;99831.38;6280295;22;19917;-83
2022/07/13 18:12:05;;;;;;;;;;;;;;;11.49;98.37;99831.28;6307291;22;19915;-86
2022/07/13 18:14:30;;;;;;;;;;;;;;;11.72;99.35;99838.16;6307389;22;19911;-83
2022/07/13 18:16:56;;;;;;;;;;;;;;;11.39;98.30;99841.47;6307522;22;19949;-83
2022/07/13 18:19:21;;;;;;;;;;;;;;;11.40;99.36;99843.16;6307592;22;20032;-84
2022/07/13 18:21:46;;;;;;;;;;;;;;;11.49;98.91;99846.31;6306170;22;19969;-81
2022/07/13 18:24:12;;;;;;;;;;;;;;;11.53;97.93;99834.66;6307503;22;19922;-83
2022/07/13 18:26:38;;;;;;;;;;;;;;;11.67;98.41;99849.94;6307482;22;19946;-83
2022/07/13 18:29:04;;;;;;;;;;;;;;;11.48;97.22;99845.47;6279558;22;19911;-83
2022/07/13 18:31:30;;;;;;;;;;;;;;;11.47;98.83;99851.69;6307025;22;19958;-83
2022/07/13 18:33:55;;;;;;;;;;;;;;;11.33;97.88;99844.38;6307444;22;20311;-82
2022/07/13 18:36:21;;;;;;;;;;;;;;;11.47;99.20;99837.59;6305960;22;20243;-83
2022/07/13 18:38:46;;;;;;;;;;;;;;;11.42;98.08;99849.28;6307778;22;19922;-84
2022/07/13 18:41:11;;;;;;;;;;;;;;;11.42;98.85;99840.44;6307339;22;19911;-83
2022/07/13 18:43:37;;;;;;;;;;;;;;;11.29;98.83;99840.13;6307330;22;19929;-83
2022/07/13 18:46:03;;;;;;;;;;;;;;;11.19;98.21;99846.81;6307257;22;19915;-84
2022/07/13 18:48:28;;;;;;;;;;;;;;;11.44;99.29;99844.75;6307230;22;20302;-82
2022/07/13 18:50:54;;;;;;;;;;;;;;;11.24;97.89;99847.44;6304562;22;19949;-83
2022/07/13 18:53:20;;;;;;;;;;;;;;;11.43;99.49;99843.03;6306928;22;20315;-83
2022/07/13 18:55:45;;;;;;;;;;;;;;;11.27;98.35;99842.84;6279560;22;19918;-83
2022/07/13 18:58:11;;;;;;;;;;;;;;;11.43;99.40;99845.69;6307373;22;20208;-83
2022/07/13 19:00:36;;;;;;;;;;;;;;;11.35;98.43;99844.31;6307366;22;19921;-83
2022/07/13 19:03:01;;;;;;;;;;;;;;;11.18;98.34;99845.91;6279531;22;19911;-84
2022/07/13 19:05:27;;;;;;;;;;;;;;;11.36;99.10;99846.03;6304923;22;19911;-83
2022/07/13 19:07:52;;;;;;;;;;;;;;;11.29;97.64;99845.44;6278869;22;20355;-83
2022/07/13 19:10:17;;;;;;;;;;;;;;;11.53;99.38;99847.91;6306983;22;20239;-82
2022/07/13 19:12:46;;;;;;;;;;;;;;;11.28;97.71;99843.75;6279004;22;20238;-82
2022/07/13 19:15:11;;;;;;;;;;;;;;;11.34;99.12;99848.75;6306497;22;19993;-83
2022/07/13 19:17:41;;;;;;;;;;;;;;;11.24;98.88;99852.75;6307059;22;19946;-86
2022/07/13 19:20:06;;;;;;;;;;;;;;;11.22;99.31;99851.97;6278097;22;19911;-83
2022/07/13 19:22:31;;;;;;;;;;;;;;;11.33;99.59;99849.69;6279881;22;20282;-83
2022/07/13 19:27:44;;;;;;;;;;;;;;;11.47;100.00;99854.34;6306846;22;19973;-83
2022/07/13 19:30:10;;;;;;;;;;;;;;;11.29;99.13;99861.34;6279932;22;19915;-83
2022/07/13 19:32:35;;;;;;;;;;;;;;;11.22;99.40;99867.88;6279416;22;19921;-83
2022/07/13 19:35:00;;;;;;;;;;;;;;;11.44;99.07;99865.13;6278133;22;19915;-82
2022/07/13 19:37:25;;;;;;;;;;;;;;;11.09;98.50;99863.09;6306444;22;19917;-82
2022/07/13 19:39:51;;;;;;;;;;;;;;;11.34;100.00;99864.66;6307006;22;20098;-82
2022/07/13 19:42:16;;;;;;;;;;;;;;;11.24;98.93;99869.53;6305230;22;19911;-82
2022/07/13 19:44:41;;;;;;;;;;;;;;;11.45;100.00;99866.84;6306652;22;19965;-83
2022/07/13 19:47:07;;;;;;;;;;;;;;;11.42;99.07;99866.97;6305585;22;19918;-82
2022/07/13 19:49:32;;;;;;;;;;;;;;;11.36;100.00;99876.09;6306575;22;19925;-82